Stations météo

réclame
Mon MeteoGroup
Molina De Aragon, Espagne (8232): Température de l'air & dewpoint: 17.04.2018 19:00:00 - 23.04.2018 19:00:00 (CEST)Molina De Aragon, Espagne (8232): Vitesse du vent: 17.04.2018 19:00:00 - 23.04.2018 19:00:00 (CEST)Molina De Aragon, Espagne (8232): Direction du vent: 17.04.2018 19:00:00 - 23.04.2018 19:00:00 (CEST)Molina De Aragon, Espagne (8232): visibility: 17.04.2018 19:00:00 - 23.04.2018 19:00:00 (CEST)Molina De Aragon, Espagne (8232): Quantités de précipitations: 17.04.2018 19:00:00 - 23.04.2018 19:00:00 (CEST)
Date & Time tt [°C] td [°C] ff [km/h] ff [knt] dd vv [km] rr [mm]
23.04.2018 19:00:00 16,4 9,6 8 4 E 20 0,0
23.04.2018 18:00:00 15,6 11,6 5 3 NE 20 0,2
23.04.2018 17:00:00 17,3 12,0 11 6 NE 19 -
23.04.2018 16:00:00 21,1 12,0 13 7 NNE 20 0,0
23.04.2018 15:00:00 20,8 9,1 5 3 ESE 20 0,0
23.04.2018 14:00:00 20,1 10,2 8 4 SE 20 -
23.04.2018 13:00:00 16,8 10,9 4 2 SW 20 0,0
23.04.2018 12:00:00 14,8 10,0 11 6 ENE 20 0,0
23.04.2018 11:00:00 11,9 10,0 5 3 ESE 20 -
23.04.2018 10:00:00 11,0 8,6 2 1 NNW 10 0,2
23.04.2018 09:00:00 10,5 6,8 4 2 SW 20 0,0
23.04.2018 08:00:00 8,9 7,0 4 2 E 18 -
23.04.2018 07:00:00 8,0 6,9 4 2 NE 17 0,0
23.04.2018 06:00:00 7,6 5,9 2 1 N 19 0,0
23.04.2018 05:00:00 7,3 5,4 2 1 SE 20 -
23.04.2018 04:00:00 7,4 5,5 2 1 E 19 0,0
23.04.2018 03:00:00 7,9 5,7 2 1 ENE 19 0,0
23.04.2018 02:00:00 8,6 6,0 2 1 NE 19 -
23.04.2018 01:00:00 9,8 7,2 2 1 NE 19 0,0
23.04.2018 00:00:00 11,2 8,2 2 1 ENE 18 0,0
22.04.2018 23:00:00 12,9 8,6 2 1 ESE 20 -
22.04.2018 22:00:00 14,8 9,2 2 1 NNW 20 0,0
22.04.2018 21:00:00 15,9 9,1 8 4 S 20 0,0
22.04.2018 20:00:00 16,9 10,0 11 6 N 19 -
22.04.2018 19:00:00 18,4 9,7 11 6 N 18 0,0
22.04.2018 18:00:00 22,4 9,5 9 5 N 19 0,0
22.04.2018 17:00:00 20,5 9,7 18 10 N 20 -
22.04.2018 16:00:00 22,2 10,7 11 6 NNE 19 0,0
22.04.2018 15:00:00 22,9 9,7 18 10 NNE 20 0,0
22.04.2018 14:00:00 22,4 9,5 16 9 NNE 19 -
22.04.2018 13:00:00 18,7 7,5 13 7 N 19 0,0
22.04.2018 12:00:00 13,5 6,6 8 4 W 20 0,0
22.04.2018 11:00:00 10,3 6,8 8 4 W 20 -
22.04.2018 10:00:00 7,1 3,7 4 2 SW 20 0,0
22.04.2018 09:00:00 5,4 3,2 2 1 SSW 18 0,0
22.04.2018 08:00:00 3,3 2,0 2 1 NE 20 -
22.04.2018 07:00:00 3,6 2,0 2 1 NE 19 0,0
22.04.2018 06:00:00 4,5 2,4 2 1 E 19 0,0
22.04.2018 05:00:00 5,3 2,8 2 1 E 20 -
22.04.2018 04:00:00 6,2 3,5 2 1 E 20 0,0
22.04.2018 03:00:00 6,7 3,5 0 0 N 20 0,0
22.04.2018 02:00:00 7,3 4,1 5 3 ESE 19 -
22.04.2018 01:00:00 8,4 4,2 2 1 NE 19 0,0
22.04.2018 00:00:00 10,0 4,8 2 1 SSE 19 0,0
21.04.2018 23:00:00 11,5 4,9 2 1 SSW 20 -
21.04.2018 22:00:00 13,4 4,8 8 4 E 20 0,0
21.04.2018 21:00:00 14,7 4,4 5 3 ENE 19 0,0
21.04.2018 20:00:00 16,9 3,2 8 4 E 20 -
21.04.2018 19:00:00 18,2 3,3 13 7 E 20 0,0
21.04.2018 18:00:00 18,8 5,3 18 10 E 20 0,0
21.04.2018 17:00:00 18,2 3,6 13 7 E 20 -
21.04.2018 16:00:00 18,2 3,3 13 7 E 20 0,0
21.04.2018 15:00:00 18,3 3,0 4 2 ENE 20 0,0
21.04.2018 14:00:00 17,6 4,2 5 3 WSW 19 -
21.04.2018 13:00:00 17,0 3,6 4 2 W 20 0,0
21.04.2018 12:00:00 15,5 4,2 4 2 WNW 20 0,0
21.04.2018 11:00:00 12,1 6,8 4 2 WSW 19 -
21.04.2018 10:00:00 7,4 4,9 4 2 W 19 0,0
21.04.2018 09:00:00 4,5 3,0 4 2 E 19 0,0
21.04.2018 08:00:00 1,4 0,5 2 1 NE 15 -
21.04.2018 07:00:00 1,6 0,6 2 1 E 14 0,0
21.04.2018 06:00:00 2,4 1,2 2 1 ESE 15 0,0
21.04.2018 05:00:00 3,2 1,9 2 1 E 12 -
21.04.2018 04:00:00 4,2 2,7 2 1 SSE 14 0,0
21.04.2018 03:00:00 5,1 3,3 2 1 ENE 16 0,0
21.04.2018 02:00:00 6,1 3,8 2 1 ESE 17 -
21.04.2018 01:00:00 7,1 3,9 2 1 E 18 0,0
21.04.2018 00:00:00 8,9 4,5 2 1 SE 17 0,0
20.04.2018 23:00:00 10,8 3,8 8 4 E 20 -
20.04.2018 22:00:00 12,2 4,2 9 5 ESE 20 0,0
20.04.2018 21:00:00 13,8 4,4 11 6 ESE 16 0,0
20.04.2018 20:00:00 15,8 4,8 15 8 E 19 -
20.04.2018 19:00:00 17,4 4,0 16 9 ESE 20 0,0
20.04.2018 18:00:00 18,4 3,4 18 10 ESE 20 0,0
20.04.2018 17:00:00 18,8 4,5 18 10 ESE 20 -
20.04.2018 16:00:00 19,6 4,5 16 9 ESE 20 0,0
20.04.2018 15:00:00 18,7 4,1 21 11 ESE 19 0,0
20.04.2018 14:00:00 17,9 5,1 18 10 E 20 -
20.04.2018 13:00:00 16,7 5,0 16 9 E 20 0,0
20.04.2018 12:00:00 15,8 5,1 15 8 E 19 0,0
20.04.2018 11:00:00 14,4 6,0 15 8 E 18 -
20.04.2018 10:00:00 11,8 6,3 11 6 E 17 0,0
20.04.2018 09:00:00 5,8 4,6 4 2 WSW 17 0,0
20.04.2018 08:00:00 3,1 2,1 2 1 ENE 14 -
20.04.2018 07:00:00 3,4 2,1 2 1 SSE 18 0,0
20.04.2018 06:00:00 4,3 2,8 2 1 E 16 0,0
20.04.2018 05:00:00 5,4 3,4 2 1 E 18 -
20.04.2018 04:00:00 6,7 3,8 2 1 S 19 0,0
20.04.2018 03:00:00 7,7 4,6 2 1 NNE 19 0,0
20.04.2018 02:00:00 9,3 4,9 4 2 ESE 20 -
20.04.2018 01:00:00 10,2 5,0 9 5 E 20 0,0
20.04.2018 00:00:00 10,9 5,4 5 3 ENE 20 0,0
19.04.2018 23:00:00 12,3 5,5 9 5 ENE 20 -
19.04.2018 22:00:00 13,4 5,3 8 4 E 20 0,0
19.04.2018 21:00:00 15,1 5,3 11 6 E 20 0,0
19.04.2018 20:00:00 17,5 5,1 15 8 ESE 20 -
19.04.2018 19:00:00 19,5 5,2 16 9 E 20 0,0
19.04.2018 18:00:00 20,3 4,7 18 10 E 20 0,0
19.04.2018 17:00:00 20,7 3,8 16 9 E 20 -
19.04.2018 16:00:00 20,8 4,4 15 8 ENE 20 0,0
19.04.2018 15:00:00 19,7 3,0 16 9 E 20 0,0
19.04.2018 14:00:00 18,9 5,4 15 8 E 20 -
19.04.2018 13:00:00 17,9 4,5 13 7 E 20 0,0
19.04.2018 12:00:00 17,3 3,9 11 6 E 20 0,0
19.04.2018 11:00:00 15,6 3,7 13 7 E 20 -
19.04.2018 10:00:00 10,1 5,3 2 1 SSE 20 0,0
19.04.2018 09:00:00 5,9 4,4 2 1 NNE 20 0,0
19.04.2018 08:00:00 3,2 2,0 2 1 E 20 -
19.04.2018 07:00:00 3,7 2,2 2 1 E 20 0,0
19.04.2018 06:00:00 4,5 2,8 2 1 ESE 20 0,0
19.04.2018 05:00:00 5,3 3,1 0 0 N 20 -
19.04.2018 04:00:00 6,3 4,0 4 2 E 20 0,0
19.04.2018 03:00:00 7,4 4,5 2 1 NE 20 0,0
19.04.2018 02:00:00 8,4 5,0 2 1 SSW 20 -
19.04.2018 01:00:00 9,8 5,2 2 1 E 20 0,0
19.04.2018 00:00:00 12,0 5,4 2 1 NNE 20 0,0
18.04.2018 23:00:00 13,9 5,3 9 5 E 20 -
18.04.2018 22:00:00 15,8 5,1 9 5 ESE 20 0,0
18.04.2018 21:00:00 17,1 5,1 8 4 E 20 0,0
18.04.2018 20:00:00 19,8 4,3 11 6 E 20 -
18.04.2018 19:00:00 21,4 4,0 13 7 E 20 0,0
18.04.2018 18:00:00 21,9 3,0 16 9 E 20 0,0
18.04.2018 17:00:00 22,4 2,5 16 9 E 20 -
18.04.2018 16:00:00 22,5 3,6 16 9 ENE 20 0,0
18.04.2018 15:00:00 22,9 4,9 5 3 ENE 19 0,0
18.04.2018 14:00:00 21,6 5,9 5 3 ENE 20 -
18.04.2018 13:00:00 20,0 5,6 4 2 WSW 20 0,0
18.04.2018 12:00:00 16,8 6,9 4 2 SW 20 0,0
18.04.2018 11:00:00 12,5 5,2 2 1 W 20 -
18.04.2018 10:00:00 7,9 4,8 4 2 W 20 0,0
18.04.2018 09:00:00 4,4 3,4 2 1 ENE 20 0,0
18.04.2018 08:00:00 1,5 0,6 2 1 E 19 -
18.04.2018 07:00:00 2,0 1,1 2 1 E 20 0,0
18.04.2018 06:00:00 2,5 1,5 2 1 SE 20 0,0
18.04.2018 05:00:00 3,1 2,1 2 1 E 20 -
18.04.2018 04:00:00 3,7 2,2 2 1 E 20 0,0
18.04.2018 03:00:00 4,7 3,2 4 2 ESE 20 0,0
18.04.2018 02:00:00 5,7 3,7 2 1 E 20 -
18.04.2018 01:00:00 7,0 4,0 0 0 N 20 0,0
18.04.2018 00:00:00 8,4 4,4 2 1 ENE 20 0,0
17.04.2018 23:00:00 10,2 4,6 5 3 E 20 -
17.04.2018 22:00:00 12,6 5,0 2 1 E 20 0,0
17.04.2018 21:00:00 15,7 4,7 2 1 NE 20 0,0
17.04.2018 20:00:00 19,2 5,3 4 2 NE 20 -
17.04.2018 19:00:00 21,7 5,6 8 4 NNE 20 0,0

tt = Température de l'air
td = dewpoint
ff = Vitesse du vent
dd = Direction du vent
vv = visibility
rr = Quantités de précipitations

stations d'obs. à proximité